Time;durP1;ratioP1;P1;durP2;ratioP2;P2;SDS_P1;SDS_P2;PMS_P1;PMS_P2;Temp;Humidity;BMP_temperature;BMP_pressure;BME280_temperature;BME280_humidity;BME280_pressure;Samples;Min_cycle;Max_cycle;Signal;HPM_P1;HPM_P2
2021/11/24 00:01:45;;;;;;;22.42;12.43;;;;;;;11.86;85.06;101686.16;4976321;28;20051;-76
2021/11/24 00:04:30;;;;;;;26.00;13.57;;;;;;;11.85;84.84;101683.72;4974644;28;20038;-76
2021/11/24 00:07:14;;;;;;;26.52;13.82;;;;;;;11.85;84.86;101687.25;4972915;28;20046;-76
2021/11/24 00:09:59;;;;;;;32.67;17.30;;;;;;;11.84;85.02;101677.47;4976037;28;20502;-77
2021/11/24 00:12:44;;;;;;;;;;;;;;;11.83;84.97;101686.78;4970854;28;20047;-76
2021/11/24 00:15:30;;;;;;;29.77;15.87;;;;;;;11.81;85.06;101678.06;4973091;28;19914;-76
2021/11/24 00:18:15;;;;;;;34.60;15.68;;;;;;;11.78;84.97;101675.16;4976725;28;20043;-75
2021/11/24 00:21:00;;;;;;;31.73;17.55;;;;;;;11.79;85.04;101685.72;4956393;29;20043;-76
2021/11/24 00:23:45;;;;;;;;;;;;;;;11.80;85.14;101681.91;4965983;28;20042;-76
2021/11/24 00:26:30;;;;;;;31.37;17.83;;;;;;;11.75;85.22;101676.53;4981513;28;19922;-78
2021/11/24 00:29:15;;;;;;;;;;;;;;;11.80;85.10;101684.63;4980103;28;20513;-78
2021/11/24 00:31:59;;;;;;;32.97;16.65;;;;;;;11.76;85.24;101677.34;4978410;28;20309;-77
2021/11/24 00:34:44;;;;;;;;;;;;;;;11.79;85.09;101682.19;4981909;28;20042;-78
2021/11/24 00:37:29;;;;;;;31.83;16.35;;;;;;;11.77;84.90;101682.50;4976554;28;19914;-78
2021/11/24 00:40:14;;;;;;;23.83;13.02;;;;;;;11.76;85.21;101677.34;4976232;28;20047;-79
2021/11/24 00:42:59;;;;;;;;;;;;;;;11.76;85.20;101680.91;4968238;28;20046;-78
2021/11/24 00:45:44;;;;;;;46.25;17.23;;;;;;;11.73;85.06;101676.06;4974903;28;20380;-77
2021/11/24 00:48:28;;;;;;;29.17;14.68;;;;;;;11.73;85.08;101675.25;4976216;28;20046;-79
2021/11/24 00:51:13;;;;;;;23.38;13.13;;;;;;;11.72;85.24;101670.88;4975389;28;20043;-77
2021/11/24 00:53:58;;;;;;;29.10;17.60;;;;;;;11.72;84.99;101674.41;4979398;28;20046;-77
2021/11/24 00:56:43;;;;;;;;;;;;;;;11.72;85.08;101674.41;4971267;28;20038;-78
2021/11/24 00:59:28;;;;;;;33.60;17.05;;;;;;;11.70;84.99;101673.06;4976603;28;20296;-78
2021/11/24 01:02:12;;;;;;;29.98;14.02;;;;;;;11.69;84.85;101668.72;4980840;28;20043;-78
2021/11/24 01:04:57;;;;;;;25.50;14.10;;;;;;;11.69;85.03;101668.72;4978544;28;20456;-75
2021/11/24 01:07:43;;;;;;;48.35;18.05;;;;;;;11.68;85.00;101665.22;4976406;28;20050;-76
2021/11/24 01:10:27;;;;;;;31.42;18.15;;;;;;;11.68;85.02;101675.31;4980195;28;20051;-77
2021/11/24 01:13:13;;;;;;;;;;;;;;;11.69;85.07;101674.97;4979350;28;20093;-77
2021/11/24 01:15:58;;;;;;;29.10;14.23;;;;;;;11.66;85.16;101670.13;4975305;28;20384;-76
2021/11/24 01:18:43;;;;;;;24.55;13.52;;;;;;;11.65;85.17;101676.69;4980206;28;20035;-76
2021/11/24 01:21:28;;;;;;;21.90;13.35;;;;;;;11.64;84.96;101668.81;4975776;28;20046;-77
2021/11/24 01:24:13;;;;;;;41.83;20.33;;;;;;;11.65;85.08;101668.53;4981906;28;20051;-77
2021/11/24 01:26:58;;;;;;;34.38;17.83;;;;;;;11.62;85.16;101668.31;4977667;28;20046;-75
2021/11/24 01:29:43;;;;;;;25.38;14.30;;;;;;;11.62;84.93;101663.69;4977632;28;20054;-76
2021/11/24 01:32:28;;;;;;;24.05;13.88;;;;;;;11.59;85.48;101653.34;4957625;28;20043;-76
2021/11/24 01:35:13;;;;;;;29.50;15.25;;;;;;;11.59;85.02;101659.63;4973796;28;20047;-76
2021/11/24 01:37:57;;;;;;;;;;;;;;;11.60;84.91;101663.16;4977497;28;20043;-75
2021/11/24 01:40:42;;;;;;;36.35;19.15;;;;;;;11.57;85.14;101661.03;4972021;28;20373;-76
2021/11/24 01:43:27;;;;;;;27.55;14.73;;;;;;;11.56;85.25;101659.41;4975359;28;20046;-76
2021/11/24 01:46:12;;;;;;;;;;;;;;;11.56;85.32;101660.22;4971706;28;20042;-77
2021/11/24 01:48:57;;;;;;;37.50;19.70;;;;;;;11.55;85.23;101663.25;4974049;28;19918;-77
2021/11/24 01:51:42;;;;;;;37.45;20.40;;;;;;;11.50;85.24;101649.72;4970209;28;20043;-77
2021/11/24 01:54:27;;;;;;;37.22;20.35;;;;;;;11.49;85.28;101642.63;4973250;28;20425;-76
2021/11/24 01:57:16;;;;;;;39.13;21.17;;;;;;;11.55;85.26;101652.34;4973354;28;20039;-77
2021/11/24 02:00:03;;;;;;;36.97;20.48;;;;;;;11.52;85.29;101644.78;4970880;28;20047;-76
2021/11/24 02:02:58;;;;;;;41.85;21.50;;;;;;;11.55;85.14;101644.19;4963320;28;20038;-76
2021/11/24 02:05:43;;;;;;;32.88;19.27;;;;;;;11.53;85.15;101635.47;4970585;28;20042;-75
2021/11/24 02:08:27;;;;;;;;;;;;;;;11.53;85.03;101638.22;4972764;28;20046;-76
2021/11/24 02:11:12;;;;;;;36.40;19.55;;;;;;;11.52;85.21;101642.88;4976471;28;20326;-76
2021/11/24 02:13:57;;;;;;;28.35;16.58;;;;;;;11.49;85.15;101632.56;4975343;28;20501;-77
2021/11/24 02:16:45;;;;;;;39.63;21.08;;;;;;;11.51;85.15;101633.06;4972015;28;20050;-76
2021/11/24 02:19:32;;;;;;;41.63;21.33;;;;;;;11.49;85.12;101627.09;4977969;28;20525;-76
2021/11/24 02:22:17;;;;;;;42.90;21.75;;;;;;;11.46;85.24;101626.91;4968213;28;20486;-76
2021/11/24 02:25:02;;;;;;;37.22;21.15;;;;;;;11.46;85.41;101626.91;4978178;28;20042;-76
2021/11/24 02:27:47;;;;;;;27.25;15.57;;;;;;;11.45;85.22;101631.53;4973811;28;20042;-76
2021/11/24 02:30:33;;;;;;;37.10;19.27;;;;;;;11.47;85.24;101625.81;4961350;28;20047;-76
2021/11/24 02:33:18;;;;;;;38.85;21.05;;;;;;;11.46;85.25;101618.75;4960280;28;20047;-77
2021/11/24 02:36:03;;;;;;;29.70;16.52;;;;;;;11.46;85.20;101616.00;4977649;28;20051;-76
2021/11/24 02:38:48;;;;;;;41.58;20.33;;;;;;;11.45;85.21;101612.47;4976130;28;20030;-76
2021/11/24 02:41:33;;;;;;;;;;;;;;;11.44;85.06;101615.50;4975936;28;20050;-77
2021/11/24 02:44:30;;;;;;;42.30;23.00;;;;;;;11.43;85.35;101611.97;4977453;28;19907;-75
2021/11/24 02:47:19;;;;;;;46.38;21.90;;;;;;;11.41;85.28;101608.75;4966684;28;20035;-76
2021/11/24 02:50:05;;;;;;;46.50;22.27;;;;;;;11.40;85.19;101607.13;4980290;28;20046;-75
2021/11/24 02:52:50;;;;;;;41.35;20.55;;;;;;;11.39;85.44;101610.13;4976972;28;20039;-75
2021/11/24 02:55:34;;;;;;;34.15;17.20;;;;;;;11.38;85.36;101609.31;4974536;28;20047;-76
2021/11/24 02:58:18;;;;;;;49.97;22.35;;;;;;;11.36;85.37;101597.94;4978447;28;20039;-77
2021/11/24 03:01:04;;;;;;;;;;;;;;;11.38;85.13;101598.44;4961227;28;20047;-77
2021/11/24 03:03:48;;;;;;;44.83;21.90;;;;;;;11.36;85.28;101597.13;4969023;28;19914;-77
2021/11/24 03:06:33;;;;;;;34.75;19.05;;;;;;;11.35;85.34;101593.59;4974825;28;20050;-77
2021/11/24 03:09:18;;;;;;;;;;;;;;;11.37;85.06;101587.84;4978772;28;20042;-77
2021/11/24 03:12:03;;;;;;;42.22;21.83;;;;;;;11.35;85.20;101590.06;4975861;28;19914;-77
2021/11/24 03:14:48;;;;;;;44.67;24.02;;;;;;;11.35;84.91;101584.63;4974037;28;20417;-77
2021/11/24 03:17:34;;;;;;;36.13;18.75;;;;;;;11.34;85.00;101586.53;4974460;28;20514;-76
2021/11/24 03:20:20;;;;;;;48.33;25.52;;;;;;;11.32;84.85;101585.22;4976349;28;20043;-77
2021/11/24 03:23:06;;;;;;;52.28;24.92;;;;;;;11.29;84.90;101577.63;4979928;28;20046;-77
2021/11/24 03:25:51;;;;;;;47.90;24.13;;;;;;;11.24;84.93;101564.91;4977329;28;20042;-76
2021/11/24 03:28:36;;;;;;;38.50;17.23;;;;;;;11.23;84.97;101568.75;4975590;28;20054;-76
2021/11/24 03:31:21;;;;;;;34.80;18.98;;;;;;;11.22;85.11;101561.69;4973886;28;20046;-76
2021/11/24 03:34:06;;;;;;;;;;;;;;;11.25;85.21;101563.00;4978053;28;20046;-77
2021/11/24 03:36:51;;;;;;;50.22;24.50;;;;;;;11.22;84.99;101567.16;4975740;28;19914;-76
2021/11/24 03:39:36;;;;;;;47.53;24.02;;;;;;;11.22;85.19;101563.63;4973934;28;20046;-76
2021/11/24 03:42:21;;;;;;;;;;;;;;;11.26;85.17;101559.19;4978063;28;20039;-76
2021/11/24 03:45:06;;;;;;;44.75;24.50;;;;;;;11.22;85.11;101555.44;4976119;28;19914;-77
2021/11/24 03:47:51;;;;;;;;;;;;;;;11.22;85.08;101560.88;4973571;28;20422;-77
2021/11/24 03:50:37;;;;;;;44.92;22.80;;;;;;;11.22;85.22;101555.44;4978106;28;20289;-78
2021/11/24 03:53:22;;;;;;;55.40;25.15;;;;;;;11.17;85.45;101553.63;4976444;28;20279;-79
2021/11/24 03:56:09;;;;;;;278.30;54.78;;;;;;;11.17;85.80;101547.38;4975911;28;20050;-77
2021/11/24 03:58:53;;;;;;;511.25;112.57;;;;;;;11.17;86.07;101550.09;4978774;28;20043;-77
2021/11/24 04:01:38;;;;;;;296.48;64.03;;;;;;;11.12;86.13;101535.44;4976620;28;20486;-78
2021/11/24 04:04:22;;;;;;;301.83;64.43;;;;;;;11.15;86.25;101547.66;4973345;28;20051;-77
2021/11/24 04:07:07;;;;;;;190.85;42.92;;;;;;;11.15;85.74;101542.22;4973313;28;20510;-78
2021/11/24 04:09:52;;;;;;;158.68;39.17;;;;;;;11.12;85.64;101538.16;4970324;28;20051;-77
2021/11/24 04:12:38;;;;;;;127.43;37.47;;;;;;;11.17;85.65;101550.09;4969456;28;20058;-76
2021/11/24 04:15:23;;;;;;;154.00;45.33;;;;;;;11.15;85.46;101544.94;4972618;28;20047;-77
2021/11/24 04:18:08;;;;;;;106.28;29.25;;;;;;;11.11;85.52;101539.28;4974612;28;20039;-77
2021/11/24 04:20:55;;;;;;;;;;;;;;;11.13;85.28;101537.06;4975248;28;20636;-77
2021/11/24 04:23:40;;;;;;;99.72;31.13;;;;;;;11.08;85.59;101537.16;4980890;28;19918;-77
2021/11/24 04:26:25;;;;;;;75.13;25.10;;;;;;;11.10;85.00;101534.94;4980359;28;20043;-76
2021/11/24 04:29:10;;;;;;;;;;;;;;;11.10;85.07;101534.94;4978443;28;20043;-76
2021/11/24 04:31:54;;;;;;;105.68;30.05;;;;;;;11.07;85.06;101529.31;4981714;28;19917;-76
2021/11/24 04:34:39;;;;;;;83.25;31.92;;;;;;;11.05;84.91;101532.31;4980299;28;20046;-78
2021/11/24 04:37:24;;;;;;;78.65;28.70;;;;;;;11.02;84.47;101523.94;4977376;28;20047;-78
2021/11/24 04:40:09;;;;;;;69.88;29.55;;;;;;;11.03;84.75;101529.06;4966854;28;20428;-77
2021/11/24 04:42:55;;;;;;;95.25;29.42;;;;;;;11.04;84.97;101530.69;4980651;28;20042;-76
2021/11/24 04:45:40;;;;;;;77.93;28.60;;;;;;;10.99;84.50;101533.50;4978110;28;20046;-77
2021/11/24 04:48:24;;;;;;;56.65;22.73;;;;;;;10.97;84.51;101538.41;4971969;28;20051;-77
2021/11/24 04:51:09;;;;;;;68.50;28.98;;;;;;;10.94;84.88;101533.59;4979148;28;20050;-77
2021/11/24 04:53:54;;;;;;;53.92;23.38;;;;;;;10.93;84.68;101526.50;4978513;28;20525;-76
2021/11/24 04:56:39;;;;;;;59.80;23.25;;;;;;;10.93;84.59;101526.50;4974573;28;20050;-76
2021/11/24 04:59:24;;;;;;;;;;;;;;;10.93;84.39;101526.50;4977567;28;20464;-76
2021/11/24 05:02:08;;;;;;;74.13;30.95;;;;;;;10.89;84.78;101522.78;4978702;28;20380;-77
2021/11/24 05:04:53;;;;;;;76.78;31.42;;;;;;;10.86;84.86;101523.38;4963056;28;20043;-76
2021/11/24 05:07:38;;;;;;;61.22;23.45;;;;;;;10.86;84.69;101515.22;4963548;28;20050;-76
2021/11/24 05:10:23;;;;;;;59.17;23.38;;;;;;;10.84;84.47;101522.84;4978353;28;20529;-76
2021/11/24 05:13:08;;;;;;;67.85;29.90;;;;;;;10.80;84.76;101516.41;4975515;28;20042;-76
2021/11/24 05:15:58;;;;;;;71.65;29.77;;;;;;;10.81;84.60;101518.03;4977284;28;20047;-76
2021/11/24 05:18:47;;;;;;;60.67;30.00;;;;;;;10.79;84.73;101516.69;4977141;28;20031;-76
2021/11/24 05:21:37;;;;;;;62.95;28.50;;;;;;;10.77;84.94;101521.63;4975914;28;20039;-76
2021/11/24 05:24:22;;;;;;;57.13;29.38;;;;;;;10.75;84.77;101513.75;4980416;28;20043;-77
2021/11/24 05:27:07;;;;;;;53.40;24.63;;;;;;;10.74;84.78;101509.44;4975932;28;20058;-76
2021/11/24 05:29:51;;;;;;;52.97;22.23;;;;;;;10.69;84.47;101501.34;4976067;28;20505;-76
2021/11/24 05:32:38;;;;;;;69.10;29.92;;;;;;;10.74;84.85;101509.44;4981469;28;20046;-78
2021/11/24 05:35:25;;;;;;;74.93;30.02;;;;;;;10.75;84.85;101508.31;4963440;28;20047;-78
2021/11/24 05:38:09;;;;;;;60.70;27.92;;;;;;;10.76;84.56;101509.94;5005396;23;20046;-79
2021/11/24 05:40:54;;;;;;;68.68;30.90;;;;;;;10.74;84.39;101509.44;4996290;28;20046;-78
2021/11/24 05:43:39;;;;;;;;;;;;;;;10.73;84.25;101513.25;4996438;28;20042;-78
2021/11/24 05:46:42;;;;;;;57.10;28.95;;;;;;;10.71;84.52;101512.75;4979918;28;19914;-78
2021/11/24 05:49:28;;;;;;;69.28;28.77;;;;;;;10.71;83.24;101513.56;5000915;28;20046;-79
2021/11/24 05:52:13;;;;;;;64.57;30.30;;;;;;;10.67;83.71;101517.94;4997530;28;20046;-78
2021/11/24 05:54:58;;;;;;;;;;;;;;;10.67;83.83;101514.41;4997494;28;20042;-78
2021/11/24 05:57:43;;;;;;;63.53;29.45;;;;;;;10.64;84.18;101513.13;4991767;28;19913;-77
2021/11/24 06:00:28;;;;;;;65.13;32.25;;;;;;;10.64;84.07;101507.69;4989855;28;20042;-77
2021/11/24 06:03:13;;;;;;;;;;;;;;;10.66;84.15;101510.09;4996227;28;20042;-78
2021/11/24 06:05:58;;;;;;;42.88;21.60;;;;;;;10.62;84.17;101514.50;4998773;28;19913;-78
2021/11/24 06:08:42;;;;;;;48.92;22.20;;;;;;;10.60;84.24;101509.38;4993529;28;20050;-78
2021/11/24 06:11:27;;;;;;;39.72;22.00;;;;;;;10.58;84.24;101518.91;4988493;28;20042;-78
2021/11/24 06:14:12;;;;;;;61.72;25.67;;;;;;;10.57;84.20;101517.28;4993732;28;20050;-78
2021/11/24 06:16:58;;;;;;;42.35;19.50;;;;;;;10.54;84.40;101520.63;4993830;28;20038;-78
2021/11/24 06:19:42;;;;;;;22.80;10.20;;;;;;;10.23;75.04;101518.34;4995060;28;20428;-77
2021/11/24 06:22:27;;;;;;;37.17;15.80;;;;;;;10.33;78.31;101519.28;4992028;28;20034;-78
2021/11/24 06:25:12;;;;;;;32.50;15.77;;;;;;;10.36;80.61;101522.25;4998186;28;20046;-78
2021/11/24 06:27:57;;;;;;;37.28;18.08;;;;;;;10.39;82.14;101527.09;4988555;28;20501;-79
2021/11/24 06:30:42;;;;;;;40.13;16.88;;;;;;;10.36;81.30;101533.13;4992045;28;20050;-78
2021/11/24 06:33:27;;;;;;;43.30;19.73;;;;;;;10.42;82.81;101531.13;4998062;28;20046;-77
2021/11/24 06:36:12;;;;;;;47.72;24.50;;;;;;;10.39;82.80;101532.53;4995113;28;20047;-78
2021/11/24 06:38:57;;;;;;;46.78;18.55;;;;;;;10.38;83.49;101530.91;4996135;28;20416;-79
2021/11/24 06:41:41;;;;;;;55.38;26.80;;;;;;;10.45;84.00;101541.44;4995624;28;20500;-78
2021/11/24 06:44:26;;;;;;;;;;;;;;;10.42;83.05;101542.81;4988860;28;20054;-78
2021/11/24 06:47:13;;;;;;;63.58;25.00;;;;;;;10.39;83.61;101534.44;4993594;28;20392;-78
2021/11/24 06:49:57;;;;;;;80.50;30.92;;;;;;;10.40;83.85;101538.78;4999199;28;20042;-78
2021/11/24 06:52:42;;;;;;;89.95;34.47;;;;;;;10.38;84.70;101538.25;4996895;28;20043;-78
2021/11/24 06:55:27;;;;;;;67.65;24.48;;;;;;;10.38;85.04;101546.41;4995160;28;20501;-78
2021/11/24 06:58:12;;;;;;;;;;;;;;;10.36;84.21;101549.44;4995804;28;20030;-78
2021/11/24 07:00:59;;;;;;;75.57;30.42;;;;;;;10.37;85.15;101550.22;4998073;28;19921;-78
2021/11/24 07:03:44;;;;;;;74.35;32.22;;;;;;;10.39;85.44;101548.03;4989830;28;20413;-78
2021/11/24 07:06:29;;;;;;;45.00;18.73;;;;;;;10.38;84.99;101546.41;4990251;28;20046;-78
2021/11/24 07:09:14;;;;;;;56.25;23.00;;;;;;;10.37;85.47;101550.22;4988874;28;20034;-78
2021/11/24 07:11:59;;;;;;;;;;;;;;;10.40;85.79;101560.53;4992528;28;20042;-78
2021/11/24 07:14:43;;;;;;;98.05;33.92;;;;;;;10.37;85.75;101552.94;4996580;28;19914;-78
2021/11/24 07:17:29;;;;;;;62.40;24.83;;;;;;;10.38;86.15;101549.13;4995214;28;20042;-78
2021/11/24 07:20:13;;;;;;;73.20;31.30;;;;;;;10.36;85.92;101549.44;4995036;28;20038;-78
2021/11/24 07:22:59;;;;;;;49.17;22.23;;;;;;;10.37;86.12;101564.63;4991978;28;20038;-78
2021/11/24 07:25:43;;;;;;;49.67;22.65;;;;;;;10.37;85.64;101559.19;4991266;28;20038;-78
2021/11/24 07:28:28;;;;;;;67.95;29.05;;;;;;;10.37;85.30;101551.03;4991791;28;20038;-78
2021/11/24 07:31:14;;;;;;;61.13;29.10;;;;;;;10.37;84.90;101561.91;4991899;28;20042;-78
2021/11/24 07:33:58;;;;;;;50.80;23.30;;;;;;;10.35;84.90;101555.97;4995222;28;20042;-77
2021/11/24 07:36:43;;;;;;;;;;;;;;;10.38;85.35;101557.28;4994091;28;20417;-78
2021/11/24 07:39:28;;;;;;;67.90;28.75;;;;;;;10.38;85.47;101547.22;4992246;28;19914;-78
2021/11/24 07:42:13;;;;;;;47.08;24.33;;;;;;;10.38;85.67;101552.66;4993234;28;20409;-78
2021/11/24 07:44:57;;;;;;;87.40;33.88;;;;;;;10.42;85.73;101558.31;4995826;28;20042;-78
2021/11/24 07:47:42;;;;;;;63.20;26.05;;;;;;;10.39;85.64;101558.91;4990074;28;20042;-78
2021/11/24 07:50:27;;;;;;;62.70;26.23;;;;;;;10.39;85.88;101554.28;4997899;28;20042;-78
2021/11/24 07:53:12;;;;;;;80.68;32.30;;;;;;;10.38;86.20;101551.84;4992490;28;20038;-78
2021/11/24 07:55:57;;;;;;;55.70;23.38;;;;;;;10.47;86.33;101553.59;4989621;28;20043;-83
2021/11/24 07:58:42;;;;;;;87.50;35.55;;;;;;;11.48;82.54;101554.66;4998912;28;20031;-76
2021/11/24 08:01:26;;;;;;;78.43;29.70;;;;;;;12.15;78.67;101556.94;4989897;28;20042;-76
2021/11/24 08:04:11;;;;;;;75.03;29.85;;;;;;;12.66;74.67;101557.44;4991772;28;20046;-74
2021/11/24 08:06:59;;;;;;;62.63;25.00;;;;;;;13.00;71.47;101547.91;4986815;28;20042;-75
2021/11/24 08:09:44;;;;;;;34.30;14.70;;;;;;;12.58;65.01;101549.19;4992221;28;20541;-76
2021/11/24 08:12:28;;;;;;;31.98;13.93;;;;;;;12.47;65.53;101556.78;4991942;28;20038;-76
2021/11/24 08:15:13;;;;;;;24.02;10.65;;;;;;;12.44;61.54;101557.41;4993204;28;20046;-75
2021/11/24 08:17:58;;;;;;;28.60;11.25;;;;;;;12.56;68.12;101546.75;4991354;28;20054;-75
2021/11/24 08:20:43;;;;;;;15.27;7.22;;;;;;;12.32;61.28;101551.66;4993332;28;20046;-76
2021/11/24 08:23:27;;;;;;;12.27;5.90;;;;;;;12.00;60.53;101555.34;4993307;28;20042;-75
2021/11/24 08:26:13;;;;;;;;;;;;;;;11.11;61.04;101550.19;4990783;28;20046;-75
2021/11/24 08:28:57;;;;;;;18.00;8.30;;;;;;;10.88;61.45;101551.09;4994927;28;19917;-75
2021/11/24 08:31:42;;;;;;;15.48;7.60;;;;;;;10.00;61.26;101554.50;4989051;28;20108;-75
2021/11/24 08:34:27;;;;;;;17.35;7.57;;;;;;;10.46;67.34;101554.75;4987208;28;20039;-75
2021/11/24 08:37:12;;;;;;;47.47;9.20;;;;;;;10.54;65.55;101545.91;4993958;28;20422;-76
2021/11/24 08:39:57;;;;;;;44.72;9.80;;;;;;;10.49;63.43;101547.88;4993705;28;20038;-75
2021/11/24 08:42:42;;;;;;;11.77;6.38;;;;;;;10.33;62.87;101554.63;4991881;28;20050;-76
2021/11/24 08:45:27;;;;;;;11.93;7.13;;;;;;;10.16;62.76;101555.13;4991177;28;20057;-75
2021/11/24 08:48:12;;;;;;;11.75;7.07;;;;;;;10.12;62.46;101562.22;4991025;28;20046;-75
2021/11/24 08:50:58;;;;;;;14.15;7.32;;;;;;;10.04;63.05;101552.81;4991817;28;20049;-75
2021/11/24 08:53:43;;;;;;;12.00;7.13;;;;;;;9.99;63.55;101555.59;4996583;28;20046;-75
2021/11/24 08:56:30;;;;;;;12.90;7.10;;;;;;;10.00;67.21;101557.22;4989510;28;20049;-75
2021/11/24 08:59:15;;;;;;;14.00;8.73;;;;;;;10.01;67.01;101558.00;4989541;28;20034;-75
2021/11/24 09:02:00;;;;;;;15.23;6.65;;;;;;;9.95;65.86;101556.47;4978842;28;20039;-75
2021/11/24 09:04:45;;;;;;;11.30;6.40;;;;;;;9.96;66.84;101564.31;4975835;28;20073;-76
2021/11/24 09:07:30;;;;;;;11.70;6.15;;;;;;;9.96;64.97;101553.44;4973289;28;20062;-75
2021/11/24 09:10:16;;;;;;;28.52;9.43;;;;;;;9.95;64.06;101560.00;4989950;28;20050;-75
2021/11/24 09:13:02;;;;;;;23.92;8.98;;;;;;;9.90;64.47;101553.81;4998248;28;20053;-75
2021/11/24 09:15:47;;;;;;;17.27;8.75;;;;;;;9.90;64.68;101562.78;4996251;28;20049;-75
2021/11/24 09:18:32;;;;;;;13.85;7.90;;;;;;;9.84;63.93;101558.50;4992307;28;20045;-75
2021/11/24 09:21:19;;;;;;;21.45;7.32;;;;;;;9.87;62.95;101558.72;4989283;28;20050;-75
2021/11/24 09:24:10;;;;;;;14.05;8.70;;;;;;;9.86;63.84;101559.00;4991941;28;20049;-75
2021/11/24 09:26:58;;;;;;;19.50;9.60;;;;;;;9.82;63.21;101553.34;4994817;28;20049;-75
2021/11/24 09:29:47;;;;;;;13.02;8.07;;;;;;;9.86;63.58;101554.38;4988952;28;20050;-75
2021/11/24 09:32:31;;;;;;;17.15;9.07;;;;;;;9.88;63.92;101559.53;4987680;28;20057;-75
2021/11/24 09:35:16;;;;;;;17.83;7.93;;;;;;;9.82;64.86;101555.25;4999118;28;20686;-75
2021/11/24 09:38:01;;;;;;;;;;;;;;;9.85;63.96;101560.13;4985592;28;20134;-75
2021/11/24 09:40:51;;;;;;;13.07;6.10;;;;;;;9.86;64.80;101557.09;4988466;28;19918;-75
2021/11/24 09:43:41;;;;;;;14.30;8.30;;;;;;;9.86;64.02;101561.72;4996300;28;20069;-75
2021/11/24 09:46:26;;;;;;;14.77;8.70;;;;;;;9.84;64.69;101566.66;4990191;28;20053;-75
2021/11/24 09:49:14;;;;;;;16.13;8.60;;;;;;;9.87;65.43;101552.47;4992599;28;20053;-75
2021/11/24 09:51:59;;;;;;;29.08;9.15;;;;;;;9.85;65.55;101557.41;4995871;28;20567;-77
2021/11/24 09:54:47;;;;;;;13.63;10.52;;;;;;;9.87;65.11;101547.84;4988860;28;20100;-76
2021/11/24 09:57:32;;;;;;;15.57;8.77;;;;;;;9.89;66.94;101547.56;4991165;28;20043;-76
2021/11/24 10:00:17;;;;;;;;;;;;;;;9.99;69.92;101542.00;4996337;28;20539;-76
2021/11/24 10:03:02;;;;;;;23.13;11.52;;;;;;;10.05;71.26;101538.13;4996951;28;19917;-76
2021/11/24 10:05:47;;;;;;;15.90;8.80;;;;;;;10.09;72.52;101541.06;4995056;28;20038;-76
2021/11/24 10:08:34;;;;;;;26.90;13.02;;;;;;;10.16;73.61;101531.47;4993965;28;20058;-76
2021/11/24 10:11:19;;;;;;;33.80;12.38;;;;;;;10.21;74.23;101525.97;4997532;28;20046;-76
2021/11/24 10:14:04;;;;;;;27.15;13.77;;;;;;;10.23;74.55;101520.25;4995553;28;20432;-76
2021/11/24 10:16:50;;;;;;;21.52;11.80;;;;;;;10.26;74.95;101522.38;4998343;28;20046;-76
2021/11/24 10:19:35;;;;;;;34.25;15.55;;;;;;;10.30;75.59;101512.56;4997197;28;20034;-76
2021/11/24 10:22:20;;;;;;;30.52;15.35;;;;;;;10.34;75.84;101510.03;4995648;28;20050;-76
2021/11/24 10:25:11;;;;;;;25.83;12.18;;;;;;;10.39;76.32;101507.25;4999644;28;20375;-75
2021/11/24 10:27:56;;;;;;;32.28;15.77;;;;;;;10.39;76.21;101504.53;4994301;28;20046;-76
2021/11/24 10:30:40;;;;;;;26.20;12.77;;;;;;;10.38;76.26;101492.84;4993582;28;20500;-76
2021/11/24 10:33:29;;;;;;;32.00;16.67;;;;;;;10.39;76.65;101494.47;4973448;28;20270;-76
2021/11/24 10:36:15;;;;;;;31.33;17.63;;;;;;;10.42;76.81;101493.88;4976299;28;20278;-76
2021/11/24 10:39:00;;;;;;;36.47;18.20;;;;;;;10.46;77.28;101489.47;4976271;28;20506;-76
2021/11/24 10:41:46;;;;;;;28.77;13.75;;;;;;;10.47;76.72;101490.25;4974042;28;20043;-76
2021/11/24 10:44:32;;;;;;;35.40;16.48;;;;;;;10.46;76.20;101486.75;4994441;28;20046;-76
2021/11/24 10:47:17;;;;;;;35.78;17.48;;;;;;;10.50;76.77;101486.97;4987848;28;20034;-76
2021/11/24 10:50:05;;;;;;;36.88;18.15;;;;;;;10.53;77.10;101472.78;4990704;28;20054;-76
2021/11/24 10:52:50;;;;;;;42.97;17.02;;;;;;;10.54;77.20;101477.09;4985115;28;20039;-75
2021/11/24 10:55:35;;;;;;;37.38;19.55;;;;;;;10.56;77.38;101472.19;4988701;28;20054;-76
2021/11/24 10:58:25;;;;;;;36.72;16.27;;;;;;;10.58;77.40;101469.97;4985534;28;20047;-76
2021/11/24 11:01:24;;;;;;;34.88;16.65;;;;;;;10.61;77.22;101461.22;4987700;28;20054;-76
2021/11/24 11:04:09;;;;;;;41.80;20.90;;;;;;;10.63;78.04;101461.72;4993488;28;20038;-76
2021/11/24 11:07:08;;;;;;;39.92;16.45;;;;;;;10.65;78.30;101456.81;4996809;28;20042;-76
2021/11/24 11:10:07;;;;;;;43.03;19.67;;;;;;;10.70;78.50;101446.66;4987362;28;20038;-76
2021/11/24 11:13:11;;;;;;;52.20;22.73;;;;;;;10.73;78.93;101450.69;4993129;28;20058;-75
2021/11/24 11:15:56;;;;;;;61.25;23.30;;;;;;;10.73;79.24;101453.41;4992471;28;20034;-76
2021/11/24 11:18:42;;;;;;;52.90;23.13;;;;;;;10.69;77.84;101444.22;4981602;28;20043;-76
2021/11/24 11:21:35;;;;;;;53.03;20.38;;;;;;;10.71;78.30;101437.41;4984836;28;20070;-76
2021/11/24 11:24:22;;;;;;;61.72;23.60;;;;;;;10.78;79.22;101436.19;4993565;28;20497;-76
2021/11/24 11:27:07;;;;;;;61.08;23.88;;;;;;;10.76;79.76;101431.06;4980309;28;20038;-76
2021/11/24 11:29:51;;;;;;;;;;;;;;;10.80;79.78;101433.97;4997578;28;20042;-75
2021/11/24 11:32:37;;;;;;;51.40;20.90;;;;;;;10.79;79.93;101433.16;4995162;28;19914;-76
2021/11/24 11:35:23;;;;;;;58.90;22.75;;;;;;;10.80;79.73;101429.34;4989261;28;20043;-76
2021/11/24 11:38:08;;;;;;;48.58;21.17;;;;;;;10.83;80.37;101415.13;4998240;23;20038;-62
2021/11/24 11:40:54;;;;;;;58.80;22.00;;;;;;;10.87;81.46;101413.41;4966233;28;20050;-62
2021/11/24 11:43:41;;;;;;;47.00;21.70;;;;;;;10.91;81.28;101413.66;4978215;28;20046;-61
2021/11/24 11:46:33;;;;;;;45.28;21.52;;;;;;;10.94;81.22;101404.88;4976077;28;20050;-61
2021/11/24 11:49:20;;;;;;;53.85;23.88;;;;;;;10.94;81.47;101392.06;4973979;28;20423;-61
2021/11/24 11:52:10;;;;;;;52.08;23.88;;;;;;;10.98;81.74;101400.44;4977865;28;20059;-61
2021/11/24 11:54:55;;;;;;;42.47;18.90;;;;;;;10.92;79.50;101388.06;4976004;28;20054;-63
2021/11/24 11:57:43;;;;;;;;;;;;;;;10.94;80.10;101388.53;4973228;28;20047;-63
2021/11/24 12:00:32;;;;;;;44.15;20.98;;;;;;;10.98;80.63;101384.91;4971389;28;19917;-62
2021/11/24 12:03:56;;;;;;;44.75;20.35;;;;;;;11.02;81.27;101382.41;4975049;28;20411;-63
2021/11/24 12:07:06;;;;;;;50.63;22.83;;;;;;;11.05;81.45;101379.91;4974462;28;20035;-61
2021/11/24 12:09:54;;;;;;;41.67;19.75;;;;;;;11.02;80.16;101369.59;4972344;28;20392;-61
2021/11/24 12:12:40;;;;;;;46.42;22.00;;;;;;;11.03;80.62;101360.31;4967577;28;20050;-62
2021/11/24 12:15:28;;;;;;;37.13;19.15;;;;;;;11.05;80.05;101360.03;4975196;28;20050;-63
2021/11/24 12:18:14;;;;;;;34.53;17.10;;;;;;;11.05;79.75;101360.03;4972334;28;20043;-63
2021/11/24 12:20:59;;;;;;;63.92;23.25;;;;;;;11.08;80.66;101352.06;4963731;28;20043;-63
2021/11/24 12:23:43;;;;;;;32.75;17.30;;;;;;;11.11;81.49;101348.75;4963092;28;20423;-62
2021/11/24 12:26:28;;;;;;;34.83;16.85;;;;;;;11.13;81.68;101348.44;4966230;28;20456;-62
2021/11/24 12:29:49;;;;;;;33.10;18.05;;;;;;;11.19;82.21;101335.53;4972462;28;20404;-62
2021/11/24 12:32:34;;;;;;;50.05;21.42;;;;;;;11.19;82.64;101338.25;4956242;29;20420;-62
2021/11/24 12:35:18;;;;;;;33.40;18.35;;;;;;;11.19;82.09;101335.53;4954004;29;20244;-62
2021/11/24 12:38:04;;;;;;;;;;;;;;;11.23;82.73;101334.59;4956766;29;20047;-62
2021/11/24 12:40:51;;;;;;;43.30;21.70;;;;;;;11.24;82.67;101333.50;4956383;29;19918;-62
2021/11/24 12:43:40;;;;;;;42.78;22.30;;;;;;;11.27;82.87;101332.09;4955084;28;20064;-61
2021/11/24 12:46:27;;;;;;;34.15;18.80;;;;;;;11.28;82.58;101325.53;4960938;28;20043;-61